sensor_id;sensor_type;location;lat;lon;timestamp;pressure;altitude;pressure_sealevel;temperature;humidity
76827;BME280;65788;52.284;20.890;2022-12-18T00:02:21;101710.31;;;19.89;28.35
76827;BME280;65788;52.284;20.890;2022-12-18T00:04:51;101716.36;;;19.84;28.38
76827;BME280;65788;52.284;20.890;2022-12-18T00:07:23;101719.46;;;19.78;28.28
76827;BME280;65788;52.284;20.890;2022-12-18T00:09:52;101724.16;;;19.72;28.36
76827;BME280;65788;52.284;20.890;2022-12-18T00:12:22;101727.88;;;19.65;28.30
76827;BME280;65788;52.284;20.890;2022-12-18T00:14:51;101728.73;;;19.62;28.23
76827;BME280;65788;52.284;20.890;2022-12-18T00:17:20;101730.98;;;19.56;28.72
76827;BME280;65788;52.284;20.890;2022-12-18T00:19:50;101729.83;;;19.49;28.79
76827;BME280;65788;52.284;20.890;2022-12-18T00:22:19;101744.23;;;19.44;28.86
76827;BME280;65788;52.284;20.890;2022-12-18T00:24:51;101742.38;;;19.40;28.89
76827;BME280;65788;52.284;20.890;2022-12-18T00:27:20;101749.68;;;19.35;29.06
76827;BME280;65788;52.284;20.890;2022-12-18T00:29:50;101748.45;;;19.27;29.26
76827;BME280;65788;52.284;20.890;2022-12-18T00:32:19;101748.65;;;19.24;29.02
76827;BME280;65788;52.284;20.890;2022-12-18T00:34:49;101746.05;;;19.18;29.28
76827;BME280;65788;52.284;20.890;2022-12-18T00:37:18;101753.04;;;19.15;29.08
76827;BME280;65788;52.284;20.890;2022-12-18T00:39:48;101761.02;;;19.11;29.33
76827;BME280;65788;52.284;20.890;2022-12-18T00:42:18;101766.27;;;19.07;29.52
76827;BME280;65788;52.284;20.890;2022-12-18T00:45:06;101776.08;;;19.01;29.63
76827;BME280;65788;52.284;20.890;2022-12-18T00:47:36;101780.67;;;18.96;29.49
76827;BME280;65788;52.284;20.890;2022-12-18T00:50:09;101779.27;;;18.94;29.60
76827;BME280;65788;52.284;20.890;2022-12-18T00:52:40;101782.50;;;18.90;29.65
76827;BME280;65788;52.284;20.890;2022-12-18T00:55:10;101784.34;;;18.87;29.57
76827;BME280;65788;52.284;20.890;2022-12-18T00:57:42;101787.24;;;18.83;29.37
76827;BME280;65788;52.284;20.890;2022-12-18T01:00:14;101791.73;;;18.81;29.34
76827;BME280;65788;52.284;20.890;2022-12-18T01:02:43;101798.68;;;18.79;29.48
76827;BME280;65788;52.284;20.890;2022-12-18T01:05:14;101795.64;;;18.76;29.55
76827;BME280;65788;52.284;20.890;2022-12-18T01:07:44;101794.77;;;18.72;29.52
76827;BME280;65788;52.284;20.890;2022-12-18T01:10:14;101793.36;;;18.70;29.57
76827;BME280;65788;52.284;20.890;2022-12-18T01:12:44;101793.94;;;18.67;29.47
76827;BME280;65788;52.284;20.890;2022-12-18T01:15:15;101795.11;;;18.65;29.34
76827;BME280;65788;52.284;20.890;2022-12-18T01:17:45;101799.59;;;18.62;29.66
76827;BME280;65788;52.284;20.890;2022-12-18T01:20:15;101803.29;;;18.58;29.50
76827;BME280;65788;52.284;20.890;2022-12-18T01:22:44;101805.69;;;18.57;29.44
76827;BME280;65788;52.284;20.890;2022-12-18T01:25:14;101808.69;;;18.53;29.66
76827;BME280;65788;52.284;20.890;2022-12-18T01:27:43;101807.78;;;18.49;29.54
76827;BME280;65788;52.284;20.890;2022-12-18T01:30:12;101810.22;;;18.47;29.59
76827;BME280;65788;52.284;20.890;2022-12-18T01:32:42;101818.13;;;18.46;29.59
76827;BME280;65788;52.284;20.890;2022-12-18T01:35:11;101830.04;;;18.42;29.61
76827;BME280;65788;52.284;20.890;2022-12-18T01:37:41;101837.17;;;18.39;29.59
76827;BME280;65788;52.284;20.890;2022-12-18T01:40:10;101839.02;;;18.37;29.47
76827;BME280;65788;52.284;20.890;2022-12-18T01:42:40;101835.37;;;18.34;29.78
76827;BME280;65788;52.284;20.890;2022-12-18T01:47:52;101845.46;;;18.31;29.86
76827;BME280;65788;52.284;20.890;2022-12-18T01:50:34;101854.27;;;18.27;29.77
76827;BME280;65788;52.284;20.890;2022-12-18T01:53:17;101853.75;;;18.29;29.59
76827;BME280;65788;52.284;20.890;2022-12-18T01:55:50;101852.52;;;18.25;29.63
76827;BME280;65788;52.284;20.890;2022-12-18T01:58:30;101851.17;;;18.25;29.61
76827;BME280;65788;52.284;20.890;2022-12-18T02:01:02;101853.20;;;18.25;30.33
76827;BME280;65788;52.284;20.890;2022-12-18T02:03:32;101858.16;;;18.25;30.16
76827;BME280;65788;52.284;20.890;2022-12-18T02:06:12;101859.91;;;18.23;30.20
76827;BME280;65788;52.284;20.890;2022-12-18T02:11:58;101875.27;;;18.20;30.11
76827;BME280;65788;52.284;20.890;2022-12-18T02:14:38;101881.51;;;18.19;30.44
76827;BME280;65788;52.284;20.890;2022-12-18T02:17:19;101886.81;;;18.16;29.98
76827;BME280;65788;52.284;20.890;2022-12-18T02:20:15;101894.30;;;18.15;30.11
76827;BME280;65788;52.284;20.890;2022-12-18T02:23:13;101896.78;;;18.13;30.09
76827;BME280;65788;52.284;20.890;2022-12-18T02:28:51;101901.45;;;18.09;30.06
76827;BME280;65788;52.284;20.890;2022-12-18T02:31:26;101900.01;;;18.05;30.27
76827;BME280;65788;52.284;20.890;2022-12-18T02:34:00;101902.64;;;18.06;29.89
76827;BME280;65788;52.284;20.890;2022-12-18T02:36:32;101906.16;;;18.06;29.88
76827;BME280;65788;52.284;20.890;2022-12-18T02:39:04;101908.11;;;18.04;29.97
76827;BME280;65788;52.284;20.890;2022-12-18T02:41:34;101913.48;;;18.04;29.77
76827;BME280;65788;52.284;20.890;2022-12-18T02:44:10;101915.02;;;18.00;29.73
76827;BME280;65788;52.284;20.890;2022-12-18T02:46:48;101915.59;;;18.00;29.62
76827;BME280;65788;52.284;20.890;2022-12-18T02:49:34;101920.48;;;17.99;29.87
76827;BME280;65788;52.284;20.890;2022-12-18T02:55:12;101919.94;;;17.96;29.75
76827;BME280;65788;52.284;20.890;2022-12-18T02:57:58;101933.02;;;17.93;29.77
76827;BME280;65788;52.284;20.890;2022-12-18T03:03:26;101943.36;;;17.91;29.67
76827;BME280;65788;52.284;20.890;2022-12-18T03:06:07;101942.45;;;17.91;29.80
76827;BME280;65788;52.284;20.890;2022-12-18T03:08:43;101949.56;;;17.90;29.62
76827;BME280;65788;52.284;20.890;2022-12-18T03:11:14;101959.35;;;17.88;29.67
76827;BME280;65788;52.284;20.890;2022-12-18T03:13:48;101964.67;;;17.88;29.66
76827;BME280;65788;52.284;20.890;2022-12-18T03:16:25;101971.23;;;17.88;29.72
76827;BME280;65788;52.284;20.890;2022-12-18T03:19:01;101970.84;;;17.86;29.29
76827;BME280;65788;52.284;20.890;2022-12-18T03:21:40;101974.27;;;17.85;29.54
76827;BME280;65788;52.284;20.890;2022-12-18T03:24:11;101977.60;;;17.82;29.47
76827;BME280;65788;52.284;20.890;2022-12-18T03:26:43;101979.19;;;17.86;29.47
76827;BME280;65788;52.284;20.890;2022-12-18T03:29:18;101981.48;;;17.82;29.46
76827;BME280;65788;52.284;20.890;2022-12-18T03:31:56;101983.44;;;17.83;29.34
76827;BME280;65788;52.284;20.890;2022-12-18T03:34:34;101988.44;;;17.81;29.65
76827;BME280;65788;52.284;20.890;2022-12-18T03:37:06;101995.14;;;17.81;29.31
76827;BME280;65788;52.284;20.890;2022-12-18T03:39:36;101993.31;;;17.80;29.34
76827;BME280;65788;52.284;20.890;2022-12-18T03:42:15;101994.64;;;17.79;29.45
76827;BME280;65788;52.284;20.890;2022-12-18T03:47:55;102004.73;;;17.76;29.48
76827;BME280;65788;52.284;20.890;2022-12-18T03:56:01;102005.77;;;17.71;29.42
76827;BME280;65788;52.284;20.890;2022-12-18T03:58:34;102008.96;;;17.69;29.48
76827;BME280;65788;52.284;20.890;2022-12-18T04:01:06;102013.89;;;17.73;29.39
76827;BME280;65788;52.284;20.890;2022-12-18T04:03:38;102021.16;;;17.70;29.15
76827;BME280;65788;52.284;20.890;2022-12-18T04:06:13;102021.34;;;17.72;29.47
76827;BME280;65788;52.284;20.890;2022-12-18T04:08:44;102017.23;;;17.81;29.11
76827;BME280;65788;52.284;20.890;2022-12-18T04:11:15;102021.88;;;17.91;28.81
76827;BME280;65788;52.284;20.890;2022-12-18T04:13:46;102026.53;;;18.02;28.77
76827;BME280;65788;52.284;20.890;2022-12-18T04:16:16;102029.95;;;18.14;28.60
76827;BME280;65788;52.284;20.890;2022-12-18T04:18:45;102039.45;;;18.27;28.36
76827;BME280;65788;52.284;20.890;2022-12-18T04:21:15;102045.63;;;18.36;28.29
76827;BME280;65788;52.284;20.890;2022-12-18T04:23:44;102047.59;;;18.41;28.15
76827;BME280;65788;52.284;20.890;2022-12-18T04:26:14;102050.00;;;18.49;28.08
76827;BME280;65788;52.284;20.890;2022-12-18T04:28:44;102057.06;;;18.55;28.11
76827;BME280;65788;52.284;20.890;2022-12-18T04:31:14;102061.84;;;18.54;28.13
76827;BME280;65788;52.284;20.890;2022-12-18T04:33:43;102060.28;;;18.53;28.06
76827;BME280;65788;52.284;20.890;2022-12-18T04:36:14;102060.42;;;18.50;27.98
76827;BME280;65788;52.284;20.890;2022-12-18T04:38:43;102062.89;;;18.48;28.41
76827;BME280;65788;52.284;20.890;2022-12-18T04:41:13;102067.98;;;18.44;28.12
76827;BME280;65788;52.284;20.890;2022-12-18T04:43:42;102070.94;;;18.41;28.21
76827;BME280;65788;52.284;20.890;2022-12-18T04:46:13;102078.98;;;18.33;28.09
76827;BME280;65788;52.284;20.890;2022-12-18T04:48:45;102075.66;;;18.31;28.19
76827;BME280;65788;52.284;20.890;2022-12-18T04:51:14;102081.20;;;18.27;28.16
76827;BME280;65788;52.284;20.890;2022-12-18T04:53:44;102085.47;;;18.23;28.50
76827;BME280;65788;52.284;20.890;2022-12-18T04:56:15;102084.81;;;18.19;28.38
76827;BME280;65788;52.284;20.890;2022-12-18T04:58:44;102086.10;;;18.16;28.57
76827;BME280;65788;52.284;20.890;2022-12-18T05:01:15;102088.84;;;18.13;28.58
76827;BME280;65788;52.284;20.890;2022-12-18T05:03:46;102092.41;;;18.11;28.61
76827;BME280;65788;52.284;20.890;2022-12-18T05:06:15;102091.49;;;18.07;28.82
76827;BME280;65788;52.284;20.890;2022-12-18T05:08:44;102090.48;;;18.03;29.37
76827;BME280;65788;52.284;20.890;2022-12-18T05:11:15;102095.69;;;18.01;29.61
76827;BME280;65788;52.284;20.890;2022-12-18T05:13:45;102099.70;;;18.00;29.80
76827;BME280;65788;52.284;20.890;2022-12-18T05:16:15;102110.08;;;17.95;29.82
76827;BME280;65788;52.284;20.890;2022-12-18T05:18:44;102118.21;;;17.93;29.89
76827;BME280;65788;52.284;20.890;2022-12-18T05:21:14;102126.25;;;17.90;30.22
76827;BME280;65788;52.284;20.890;2022-12-18T05:23:43;102131.33;;;17.89;30.30
76827;BME280;65788;52.284;20.890;2022-12-18T05:26:16;102137.08;;;17.94;30.06
76827;BME280;65788;52.284;20.890;2022-12-18T05:28:46;102138.77;;;17.97;30.06
76827;BME280;65788;52.284;20.890;2022-12-18T05:31:16;102142.05;;;17.99;29.88
76827;BME280;65788;52.284;20.890;2022-12-18T05:33:45;102142.48;;;18.05;29.66
76827;BME280;65788;52.284;20.890;2022-12-18T05:36:15;102143.77;;;18.13;29.64
76827;BME280;65788;52.284;20.890;2022-12-18T05:38:44;102149.04;;;18.20;29.22
76827;BME280;65788;52.284;20.890;2022-12-18T05:41:14;102148.44;;;18.28;29.41
76827;BME280;65788;52.284;20.890;2022-12-18T05:43:43;102158.15;;;18.35;29.16
76827;BME280;65788;52.284;20.890;2022-12-18T05:46:15;102157.73;;;18.44;29.09
76827;BME280;65788;52.284;20.890;2022-12-18T05:48:45;102154.85;;;18.50;29.01
76827;BME280;65788;52.284;20.890;2022-12-18T05:51:16;102162.19;;;18.57;29.00
76827;BME280;65788;52.284;20.890;2022-12-18T05:53:46;102165.42;;;18.65;28.97
76827;BME280;65788;52.284;20.890;2022-12-18T05:56:18;102163.33;;;18.68;28.73
76827;BME280;65788;52.284;20.890;2022-12-18T05:58:51;102162.73;;;18.72;28.87
76827;BME280;65788;52.284;20.890;2022-12-18T06:01:25;102166.52;;;18.73;28.57
76827;BME280;65788;52.284;20.890;2022-12-18T06:03:55;102165.77;;;18.78;28.91
76827;BME280;65788;52.284;20.890;2022-12-18T06:06:27;102168.75;;;18.83;28.75
76827;BME280;65788;52.284;20.890;2022-12-18T06:08:57;102174.26;;;18.88;28.79
76827;BME280;65788;52.284;20.890;2022-12-18T06:11:27;102182.50;;;18.90;28.57
76827;BME280;65788;52.284;20.890;2022-12-18T06:13:57;102183.08;;;18.94;28.61
76827;BME280;65788;52.284;20.890;2022-12-18T06:16:30;102184.13;;;18.96;28.62
76827;BME280;65788;52.284;20.890;2022-12-18T06:19:01;102191.50;;;18.98;28.62
76827;BME280;65788;52.284;20.890;2022-12-18T06:21:33;102199.92;;;18.98;28.86
76827;BME280;65788;52.284;20.890;2022-12-18T06:24:03;102202.88;;;19.01;28.50
76827;BME280;65788;52.284;20.890;2022-12-18T06:26:33;102207.59;;;19.04;28.61
76827;BME280;65788;52.284;20.890;2022-12-18T06:29:03;102211.37;;;19.05;28.54
76827;BME280;65788;52.284;20.890;2022-12-18T06:31:32;102216.35;;;19.08;28.39
76827;BME280;65788;52.284;20.890;2022-12-18T06:34:03;102218.18;;;19.10;28.26
76827;BME280;65788;52.284;20.890;2022-12-18T06:36:32;102227.38;;;19.12;28.43
76827;BME280;65788;52.284;20.890;2022-12-18T06:39:02;102229.28;;;19.15;28.09
76827;BME280;65788;52.284;20.890;2022-12-18T06:41:32;102233.00;;;19.17;28.34
76827;BME280;65788;52.284;20.890;2022-12-18T06:44:01;102238.73;;;19.19;28.18
76827;BME280;65788;52.284;20.890;2022-12-18T06:46:30;102244.29;;;19.21;28.21
76827;BME280;65788;52.284;20.890;2022-12-18T06:49:01;102248.20;;;19.22;28.38
76827;BME280;65788;52.284;20.890;2022-12-18T06:51:30;102251.15;;;19.23;27.99
76827;BME280;65788;52.284;20.890;2022-12-18T06:54:00;102251.15;;;19.24;28.24
76827;BME280;65788;52.284;20.890;2022-12-18T06:56:30;102256.41;;;19.27;27.97
76827;BME280;65788;52.284;20.890;2022-12-18T06:59:00;102259.35;;;19.30;28.03
76827;BME280;65788;52.284;20.890;2022-12-18T07:01:30;102263.20;;;19.31;28.08
76827;BME280;65788;52.284;20.890;2022-12-18T07:03:59;102266.33;;;19.31;28.00
76827;BME280;65788;52.284;20.890;2022-12-18T07:06:28;102268.41;;;19.32;27.95
76827;BME280;65788;52.284;20.890;2022-12-18T07:08:58;102264.35;;;19.32;27.94
76827;BME280;65788;52.284;20.890;2022-12-18T07:11:27;102268.30;;;19.34;27.90
76827;BME280;65788;52.284;20.890;2022-12-18T07:13:56;102274.91;;;19.38;27.90
76827;BME280;65788;52.284;20.890;2022-12-18T07:16:26;102284.91;;;19.39;27.77
76827;BME280;65788;52.284;20.890;2022-12-18T07:18:57;102283.36;;;19.39;28.00
76827;BME280;65788;52.284;20.890;2022-12-18T07:21:26;102287.60;;;19.44;27.95
76827;BME280;65788;52.284;20.890;2022-12-18T07:23:56;102286.11;;;19.43;27.59
76827;BME280;65788;52.284;20.890;2022-12-18T07:26:25;102287.96;;;19.44;27.70
76827;BME280;65788;52.284;20.890;2022-12-18T07:28:56;102289.83;;;19.45;27.98
76827;BME280;65788;52.284;20.890;2022-12-18T07:31:27;102295.81;;;19.47;27.86
76827;BME280;65788;52.284;20.890;2022-12-18T07:33:56;102302.25;;;19.44;27.63
76827;BME280;65788;52.284;20.890;2022-12-18T07:36:25;102303.15;;;19.45;28.00
76827;BME280;65788;52.284;20.890;2022-12-18T07:38:55;102306.23;;;19.48;27.69
76827;BME280;65788;52.284;20.890;2022-12-18T07:41:25;102310.52;;;19.49;27.52
76827;BME280;65788;52.284;20.890;2022-12-18T07:43:54;102314.32;;;19.50;27.70
76827;BME280;65788;52.284;20.890;2022-12-18T07:46:23;102315.98;;;19.51;27.62
76827;BME280;65788;52.284;20.890;2022-12-18T07:48:53;102325.14;;;19.52;27.62
76827;BME280;65788;52.284;20.890;2022-12-18T07:51:22;102330.59;;;19.53;27.53
76827;BME280;65788;52.284;20.890;2022-12-18T07:53:52;102335.79;;;19.55;27.53
76827;BME280;65788;52.284;20.890;2022-12-18T07:56:21;102340.14;;;19.54;27.38
76827;BME280;65788;52.284;20.890;2022-12-18T07:58:50;102341.77;;;19.54;27.42
76827;BME280;65788;52.284;20.890;2022-12-18T08:01:20;102348.11;;;19.57;27.44
76827;BME280;65788;52.284;20.890;2022-12-18T08:03:49;102352.35;;;19.57;27.45
76827;BME280;65788;52.284;20.890;2022-12-18T08:06:19;102355.14;;;19.60;27.36
76827;BME280;65788;52.284;20.890;2022-12-18T08:08:48;102360.49;;;19.61;27.10
76827;BME280;65788;52.284;20.890;2022-12-18T08:11:17;102363.60;;;19.57;27.29
76827;BME280;65788;52.284;20.890;2022-12-18T08:13:47;102368.02;;;19.56;27.43
76827;BME280;65788;52.284;20.890;2022-12-18T08:16:17;102365.92;;;19.58;27.19
76827;BME280;65788;52.284;20.890;2022-12-18T08:18:46;102367.55;;;19.60;27.35
76827;BME280;65788;52.284;20.890;2022-12-18T08:21:19;102367.30;;;19.61;27.46
76827;BME280;65788;52.284;20.890;2022-12-18T08:23:51;102370.73;;;19.61;27.16
76827;BME280;65788;52.284;20.890;2022-12-18T08:26:21;102377.46;;;19.63;27.31
76827;BME280;65788;52.284;20.890;2022-12-18T08:28:51;102380.59;;;19.65;27.03
76827;BME280;65788;52.284;20.890;2022-12-18T08:31:23;102391.57;;;19.64;27.21
76827;BME280;65788;52.284;20.890;2022-12-18T08:33:53;102396.27;;;19.64;27.20
76827;BME280;65788;52.284;20.890;2022-12-18T08:36:24;102400.62;;;19.66;27.27
76827;BME280;65788;52.284;20.890;2022-12-18T08:38:54;102412.15;;;19.67;27.02
76827;BME280;65788;52.284;20.890;2022-12-18T08:41:23;102414.02;;;19.67;26.96
76827;BME280;65788;52.284;20.890;2022-12-18T08:43:52;102411.31;;;19.68;27.06
76827;BME280;65788;52.284;20.890;2022-12-18T08:46:42;102408.20;;;19.67;27.12
76827;BME280;65788;52.284;20.890;2022-12-18T08:49:12;102405.95;;;19.66;27.05
76827;BME280;65788;52.284;20.890;2022-12-18T08:51:42;102409.38;;;19.70;26.90
76827;BME280;65788;52.284;20.890;2022-12-18T08:54:12;102412.66;;;19.69;27.24
76827;BME280;65788;52.284;20.890;2022-12-18T08:56:43;102414.58;;;19.70;26.98
76827;BME280;65788;52.284;20.890;2022-12-18T08:59:12;102414.12;;;19.71;26.79
76827;BME280;65788;52.284;20.890;2022-12-18T09:01:43;102417.55;;;19.71;26.74
76827;BME280;65788;52.284;20.890;2022-12-18T09:04:13;102414.50;;;19.71;26.95
76827;BME280;65788;52.284;20.890;2022-12-18T09:06:43;102416.48;;;19.71;26.81
76827;BME280;65788;52.284;20.890;2022-12-18T09:09:12;102418.77;;;19.70;27.01
76827;BME280;65788;52.284;20.890;2022-12-18T09:11:41;102425.31;;;19.73;26.82
76827;BME280;65788;52.284;20.890;2022-12-18T09:14:11;102427.80;;;19.71;26.78
76827;BME280;65788;52.284;20.890;2022-12-18T09:16:40;102428.98;;;19.72;26.95
76827;BME280;65788;52.284;20.890;2022-12-18T09:19:10;102430.41;;;19.72;26.95
76827;BME280;65788;52.284;20.890;2022-12-18T09:21:40;102433.61;;;19.72;26.86
76827;BME280;65788;52.284;20.890;2022-12-18T09:24:12;102437.32;;;19.72;26.93
76827;BME280;65788;52.284;20.890;2022-12-18T09:26:42;102439.51;;;19.74;26.84
76827;BME280;65788;52.284;20.890;2022-12-18T09:29:12;102440.81;;;19.77;26.71
76827;BME280;65788;52.284;20.890;2022-12-18T09:31:41;102438.10;;;19.77;26.81
76827;BME280;65788;52.284;20.890;2022-12-18T09:34:11;102436.44;;;19.75;26.85
76827;BME280;65788;52.284;20.890;2022-12-18T09:36:40;102438.95;;;19.72;26.90
76827;BME280;65788;52.284;20.890;2022-12-18T09:39:10;102439.81;;;19.74;26.82
76827;BME280;65788;52.284;20.890;2022-12-18T09:41:54;102440.27;;;19.74;26.88
76827;BME280;65788;52.284;20.890;2022-12-18T09:46:58;102433.42;;;19.75;26.72
76827;BME280;65788;52.284;20.890;2022-12-18T09:49:35;102439.29;;;19.74;26.89
76827;BME280;65788;52.284;20.890;2022-12-18T09:52:21;102446.50;;;19.78;26.69
76827;BME280;65788;52.284;20.890;2022-12-18T09:57:39;102449.30;;;19.67;27.79
76827;BME280;65788;52.284;20.890;2022-12-18T10:00:18;102449.33;;;19.64;28.20
76827;BME280;65788;52.284;20.890;2022-12-18T10:02:49;102453.05;;;19.57;28.69
76827;BME280;65788;52.284;20.890;2022-12-18T10:08:03;102464.98;;;19.54;29.05
76827;BME280;65788;52.284;20.890;2022-12-18T10:13:17;102474.55;;;19.59;29.18
76827;BME280;65788;52.284;20.890;2022-12-18T10:16:03;102475.59;;;19.61;29.06
76827;BME280;65788;52.284;20.890;2022-12-18T10:18:52;102473.50;;;19.63;29.09
76827;BME280;65788;52.284;20.890;2022-12-18T10:21:32;102474.40;;;19.65;29.28
76827;BME280;65788;52.284;20.890;2022-12-18T10:26:43;102469.41;;;19.73;28.91
76827;BME280;65788;52.284;20.890;2022-12-18T10:29:15;102469.92;;;19.75;29.08
76827;BME280;65788;52.284;20.890;2022-12-18T10:31:45;102467.94;;;19.76;29.04
76827;BME280;65788;52.284;20.890;2022-12-18T10:34:15;102463.09;;;19.80;29.05
76827;BME280;65788;52.284;20.890;2022-12-18T10:36:45;102457.61;;;19.81;28.94
76827;BME280;65788;52.284;20.890;2022-12-18T10:39:24;102459.04;;;19.83;28.86
76827;BME280;65788;52.284;20.890;2022-12-18T10:42:10;102463.47;;;19.88;28.76
76827;BME280;65788;52.284;20.890;2022-12-18T10:44:42;102459.70;;;19.89;28.57
76827;BME280;65788;52.284;20.890;2022-12-18T10:47:17;102456.70;;;19.91;28.43
76827;BME280;65788;52.284;20.890;2022-12-18T10:49:50;102459.24;;;19.91;28.14
76827;BME280;65788;52.284;20.890;2022-12-18T10:52:24;102453.04;;;19.92;28.23
76827;BME280;65788;52.284;20.890;2022-12-18T10:54:57;102454.86;;;19.92;28.18
76827;BME280;65788;52.284;20.890;2022-12-18T10:57:38;102467.29;;;19.92;28.29
76827;BME280;65788;52.284;20.890;2022-12-18T11:00:28;102463.61;;;19.94;28.16
76827;BME280;65788;52.284;20.890;2022-12-18T11:02:58;102461.45;;;19.95;28.09
76827;BME280;65788;52.284;20.890;2022-12-18T11:05:34;102462.38;;;19.95;28.11
76827;BME280;65788;52.284;20.890;2022-12-18T11:08:20;102466.80;;;19.93;28.03
76827;BME280;65788;52.284;20.890;2022-12-18T11:10:50;102467.26;;;19.94;28.04
76827;BME280;65788;52.284;20.890;2022-12-18T11:13:22;102463.08;;;19.93;27.96
76827;BME280;65788;52.284;20.890;2022-12-18T11:15:52;102458.94;;;19.96;27.94
76827;BME280;65788;52.284;20.890;2022-12-18T11:18:35;102458.63;;;19.96;27.84
76827;BME280;65788;52.284;20.890;2022-12-18T11:21:07;102460.19;;;19.96;27.70
76827;BME280;65788;52.284;20.890;2022-12-18T11:23:51;102458.16;;;19.93;27.61
76827;BME280;65788;52.284;20.890;2022-12-18T11:26:20;102463.92;;;19.91;27.79
76827;BME280;65788;52.284;20.890;2022-12-18T11:29:12;102465.44;;;19.87;27.76
76827;BME280;65788;52.284;20.890;2022-12-18T11:31:44;102471.25;;;19.88;28.03
76827;BME280;65788;52.284;20.890;2022-12-18T11:34:24;102472.96;;;19.88;28.41
76827;BME280;65788;52.284;20.890;2022-12-18T11:36:57;102472.92;;;19.87;28.95
76827;BME280;65788;52.284;20.890;2022-12-18T11:39:35;102469.77;;;19.90;28.94
76827;BME280;65788;52.284;20.890;2022-12-18T11:42:35;102468.77;;;19.92;28.62
76827;BME280;65788;52.284;20.890;2022-12-18T11:45:18;102463.67;;;19.93;28.67
76827;BME280;65788;52.284;20.890;2022-12-18T11:48:00;102464.37;;;19.95;29.31
76827;BME280;65788;52.284;20.890;2022-12-18T11:53:12;102475.48;;;20.11;29.52
76827;BME280;65788;52.284;20.890;2022-12-18T12:01:23;102474.73;;;20.34;32.14
76827;BME280;65788;52.284;20.890;2022-12-18T12:06:52;102478.01;;;20.49;32.33
76827;BME280;65788;52.284;20.890;2022-12-18T12:09:32;102478.58;;;20.55;31.27
76827;BME280;65788;52.284;20.890;2022-12-18T12:12:31;102480.27;;;20.49;30.31
76827;BME280;65788;52.284;20.890;2022-12-18T12:15:36;102471.42;;;20.56;29.80
76827;BME280;65788;52.284;20.890;2022-12-18T12:18:33;102466.43;;;20.67;29.22
76827;BME280;65788;52.284;20.890;2022-12-18T12:26:38;102486.55;;;20.96;28.75
76827;BME280;65788;52.284;20.890;2022-12-18T12:29:32;102489.33;;;20.96;28.59
76827;BME280;65788;52.284;20.890;2022-12-18T12:35:36;102500.91;;;20.83;28.63
76827;BME280;65788;52.284;20.890;2022-12-18T12:38:19;102506.16;;;20.75;29.11
76827;BME280;65788;52.284;20.890;2022-12-18T12:40:58;102513.82;;;20.82;29.12
76827;BME280;65788;52.284;20.890;2022-12-18T12:43:35;102507.97;;;20.85;29.29
76827;BME280;65788;52.284;20.890;2022-12-18T12:46:11;102510.98;;;20.86;28.42
76827;BME280;65788;52.284;20.890;2022-12-18T12:48:51;102509.23;;;20.75;28.20
76827;BME280;65788;52.284;20.890;2022-12-18T12:51:37;102515.17;;;20.91;29.14
76827;BME280;65788;52.284;20.890;2022-12-18T12:54:21;102521.49;;;20.93;29.26
76827;BME280;65788;52.284;20.890;2022-12-18T12:57:02;102530.27;;;20.94;29.00
76827;BME280;65788;52.284;20.890;2022-12-18T13:02:48;102542.77;;;20.88;29.43
76827;BME280;65788;52.284;20.890;2022-12-18T13:05:51;102547.91;;;20.87;28.49
76827;BME280;65788;52.284;20.890;2022-12-18T13:08:31;102543.65;;;20.65;28.60
76827;BME280;65788;52.284;20.890;2022-12-18T13:11:01;102552.45;;;20.58;28.45
76827;BME280;65788;52.284;20.890;2022-12-18T13:13:55;102554.27;;;20.61;28.25
76827;BME280;65788;52.284;20.890;2022-12-18T13:16:26;102558.39;;;20.62;28.13
76827;BME280;65788;52.284;20.890;2022-12-18T13:18:57;102567.21;;;20.66;28.03
76827;BME280;65788;52.284;20.890;2022-12-18T13:21:29;102566.06;;;20.67;27.85
76827;BME280;65788;52.284;20.890;2022-12-18T13:24:26;102567.05;;;20.68;27.84
76827;BME280;65788;52.284;20.890;2022-12-18T13:26:55;102559.20;;;20.66;27.84
76827;BME280;65788;52.284;20.890;2022-12-18T13:29:43;102569.16;;;20.64;27.83
76827;BME280;65788;52.284;20.890;2022-12-18T13:32:21;102570.24;;;20.61;28.03
76827;BME280;65788;52.284;20.890;2022-12-18T13:35:37;102576.34;;;20.58;27.91
76827;BME280;65788;52.284;20.890;2022-12-18T13:37:59;102579.81;;;20.55;28.22
76827;BME280;65788;52.284;20.890;2022-12-18T13:49:18;102588.52;;;20.54;28.26
76827;BME280;65788;52.284;20.890;2022-12-18T13:51:52;102591.06;;;20.54;28.27
76827;BME280;65788;52.284;20.890;2022-12-18T13:54:32;102590.19;;;20.54;27.98
76827;BME280;65788;52.284;20.890;2022-12-18T13:57:04;102589.81;;;20.52;28.29
76827;BME280;65788;52.284;20.890;2022-12-18T13:59:40;102595.10;;;20.51;28.16
76827;BME280;65788;52.284;20.890;2022-12-18T14:02:35;102595.08;;;20.43;28.56
76827;BME280;65788;52.284;20.890;2022-12-18T14:05:24;102590.80;;;20.45;28.38
76827;BME280;65788;52.284;20.890;2022-12-18T14:07:54;102595.77;;;20.50;28.16
76827;BME280;65788;52.284;20.890;2022-12-18T14:10:24;102599.60;;;20.57;28.05
76827;BME280;65788;52.284;20.890;2022-12-18T14:12:55;102606.59;;;20.56;27.81
76827;BME280;65788;52.284;20.890;2022-12-18T14:15:40;102612.30;;;20.53;28.00
76827;BME280;65788;52.284;20.890;2022-12-18T14:21:00;102609.15;;;20.48;27.86
76827;BME280;65788;52.284;20.890;2022-12-18T14:23:38;102604.10;;;20.49;27.95
76827;BME280;65788;52.284;20.890;2022-12-18T14:26:27;102606.23;;;20.48;27.98